KLM912 MPTO-MROC
Flight info
| Callsign | KLM912 |
|---|---|
| Flight time | N/A |
| Altitude | 32000 |
| Route | PUDOS DCT ISEBA CUARE4I |
| Aircraft | B738/M-SDE2E3FGHIRWXY/LB1 |
Departure
| Time | N/A |
|---|---|
| Airport | Tocumen International Airport (MPTO) |
Arrival
| Time | 2026-05-04 12:37 |
|---|---|
| Airport | Juan Santamaría International Airport (MROC) |
| Time | Latitude | Longitude | Altitude | Speed | Heading |
|---|---|---|---|---|---|
| 2026-05-04 12:36 | 9.99765 | -84.19866 | 3152 ft | 166 kts | 250° |
| 2026-05-04 12:37 | 9.99365 | -84.20936 | 2996 ft | 155 kts | 249° |
| 2026-05-04 12:37 | 9.99092 | -84.21677 | 2954 ft | 53 kts | 249° |
| 2026-05-04 12:37 | 9.99008 | -84.21899 | 2944 ft | 24 kts | 248° |
| 2026-05-04 12:37 | 9.98949 | -84.22053 | 2933 ft | 20 kts | 252° |
| 2026-05-04 12:38 | 9.99010 | -84.22125 | 2936 ft | 13 kts | 28° |
| 2026-05-04 12:38 | 9.99042 | -84.22057 | 2939 ft | 9 kts | 68° |
| 2026-05-04 12:38 | 9.99068 | -84.21999 | 2935 ft | 9 kts | 65° |
| 2026-05-04 12:38 | 9.99095 | -84.21935 | 2937 ft | 10 kts | 67° |
| 2026-05-04 12:39 | 9.99124 | -84.21861 | 2943 ft | 13 kts | 69° |
| 2026-05-04 12:39 | 9.99160 | -84.21762 | 2952 ft | 17 kts | 69° |
| 2026-05-04 12:39 | 9.99207 | -84.21641 | 2947 ft | 20 kts | 69° |
| 2026-05-04 12:39 | 9.99258 | -84.21504 | 2960 ft | 22 kts | 70° |
| 2026-05-04 12:40 | 9.99310 | -84.21360 | 2969 ft | 22 kts | 70° |
| 2026-05-04 12:40 | 9.99360 | -84.21223 | 2975 ft | 20 kts | 69° |
| 2026-05-04 12:40 | 9.99409 | -84.21096 | 2981 ft | 19 kts | 68° |
| 2026-05-04 12:40 | 9.99454 | -84.20978 | 2987 ft | 17 kts | 70° |
| 2026-05-04 12:41 | 9.99493 | -84.20870 | 2993 ft | 16 kts | 70° |
| 2026-05-04 12:41 | 9.99531 | -84.20771 | 2997 ft | 15 kts | 68° |
| 2026-05-04 12:41 | 9.99567 | -84.20678 | 3004 ft | 14 kts | 70° |
| 2026-05-04 12:41 | 9.99599 | -84.20588 | 3005 ft | 13 kts | 70° |
| 2026-05-04 12:42 | 9.99629 | -84.20504 | 3011 ft | 12 kts | 69° |
| 2026-05-04 12:42 | 9.99658 | -84.20428 | 3015 ft | 9 kts | 69° |
| 2026-05-04 12:42 | 9.99697 | -84.20409 | 3012 ft | 6 kts | 355° |
| 2026-05-04 12:42 | 9.99719 | -84.20416 | 3012 ft | 0 kts | 341° |